sensor_id;sensor_type;location;lat;lon;timestamp;temperature;humidity
13344;DHT22;6741;48.964;9.406;2022-11-20T00:01:32;4.30;99.90
13344;DHT22;6741;48.964;9.406;2022-11-20T00:03:59;4.20;99.90
13344;DHT22;6741;48.964;9.406;2022-11-20T00:06:27;4.30;99.90
13344;DHT22;6741;48.964;9.406;2022-11-20T00:08:57;4.30;99.90
13344;DHT22;6741;48.964;9.406;2022-11-20T00:11:26;4.40;99.90
13344;DHT22;6741;48.964;9.406;2022-11-20T00:13:56;4.40;99.90
13344;DHT22;6741;48.964;9.406;2022-11-20T00:16:25;4.40;99.90
13344;DHT22;6741;48.964;9.406;2022-11-20T00:18:52;4.40;99.90
13344;DHT22;6741;48.964;9.406;2022-11-20T00:21:21;4.40;99.90
13344;DHT22;6741;48.964;9.406;2022-11-20T00:23:49;4.30;99.90
13344;DHT22;6741;48.964;9.406;2022-11-20T00:26:19;4.30;99.90
13344;DHT22;6741;48.964;9.406;2022-11-20T00:28:50;4.30;99.90
13344;DHT22;6741;48.964;9.406;2022-11-20T00:31:18;4.40;99.90
13344;DHT22;6741;48.964;9.406;2022-11-20T00:33:45;4.40;99.90
13344;DHT22;6741;48.964;9.406;2022-11-20T00:36:15;4.40;99.90
13344;DHT22;6741;48.964;9.406;2022-11-20T00:38:42;4.40;99.90
13344;DHT22;6741;48.964;9.406;2022-11-20T00:41:11;4.40;99.90
13344;DHT22;6741;48.964;9.406;2022-11-20T00:43:40;4.50;99.90
13344;DHT22;6741;48.964;9.406;2022-11-20T00:46:09;4.50;99.90
13344;DHT22;6741;48.964;9.406;2022-11-20T00:48:36;4.50;99.90
13344;DHT22;6741;48.964;9.406;2022-11-20T00:51:03;4.40;99.90
13344;DHT22;6741;48.964;9.406;2022-11-20T00:53:31;4.40;99.90
13344;DHT22;6741;48.964;9.406;2022-11-20T00:55:59;4.40;99.90
13344;DHT22;6741;48.964;9.406;2022-11-20T00:58:29;4.40;99.90
13344;DHT22;6741;48.964;9.406;2022-11-20T01:01:01;4.50;99.90
13344;DHT22;6741;48.964;9.406;2022-11-20T01:03:30;4.50;99.90
13344;DHT22;6741;48.964;9.406;2022-11-20T01:06:00;4.50;99.90
13344;DHT22;6741;48.964;9.406;2022-11-20T01:08:30;4.50;99.90
13344;DHT22;6741;48.964;9.406;2022-11-20T01:11:01;4.50;99.90
13344;DHT22;6741;48.964;9.406;2022-11-20T01:13:29;4.40;99.90
13344;DHT22;6741;48.964;9.406;2022-11-20T01:16:09;4.40;99.90
13344;DHT22;6741;48.964;9.406;2022-11-20T01:18:37;4.40;99.90
13344;DHT22;6741;48.964;9.406;2022-11-20T01:21:05;4.40;99.90
13344;DHT22;6741;48.964;9.406;2022-11-20T01:23:33;4.50;99.90
13344;DHT22;6741;48.964;9.406;2022-11-20T01:26:01;4.50;99.90
13344;DHT22;6741;48.964;9.406;2022-11-20T01:28:29;4.50;99.90
13344;DHT22;6741;48.964;9.406;2022-11-20T01:30:57;4.60;99.90
13344;DHT22;6741;48.964;9.406;2022-11-20T01:33:26;4.60;99.90
13344;DHT22;6741;48.964;9.406;2022-11-20T01:35:53;4.60;99.90
13344;DHT22;6741;48.964;9.406;2022-11-20T01:38:20;4.60;99.90
13344;DHT22;6741;48.964;9.406;2022-11-20T01:40:54;4.60;99.90
13344;DHT22;6741;48.964;9.406;2022-11-20T01:43:22;4.60;99.90
13344;DHT22;6741;48.964;9.406;2022-11-20T01:46:15;4.70;99.90
13344;DHT22;6741;48.964;9.406;2022-11-20T01:48:48;4.60;99.90
13344;DHT22;6741;48.964;9.406;2022-11-20T01:51:24;4.60;99.90
13344;DHT22;6741;48.964;9.406;2022-11-20T01:53:54;4.70;99.90
13344;DHT22;6741;48.964;9.406;2022-11-20T01:56:22;4.70;99.90
13344;DHT22;6741;48.964;9.406;2022-11-20T01:58:52;4.70;99.90
13344;DHT22;6741;48.964;9.406;2022-11-20T02:01:20;4.70;99.90
13344;DHT22;6741;48.964;9.406;2022-11-20T02:03:49;4.70;99.90
13344;DHT22;6741;48.964;9.406;2022-11-20T02:06:21;4.60;99.90
13344;DHT22;6741;48.964;9.406;2022-11-20T02:08:50;4.60;99.90
13344;DHT22;6741;48.964;9.406;2022-11-20T02:11:17;4.60;99.90
13344;DHT22;6741;48.964;9.406;2022-11-20T02:13:45;4.60;99.90
13344;DHT22;6741;48.964;9.406;2022-11-20T02:16:14;4.50;99.90
13344;DHT22;6741;48.964;9.406;2022-11-20T02:18:43;4.50;99.90
13344;DHT22;6741;48.964;9.406;2022-11-20T02:21:20;4.50;99.90
13344;DHT22;6741;48.964;9.406;2022-11-20T02:24:04;4.50;99.90
13344;DHT22;6741;48.964;9.406;2022-11-20T02:26:33;4.50;99.90
13344;DHT22;6741;48.964;9.406;2022-11-20T02:29:02;4.50;99.90
13344;DHT22;6741;48.964;9.406;2022-11-20T02:31:38;4.60;99.90
13344;DHT22;6741;48.964;9.406;2022-11-20T02:34:06;4.60;99.90
13344;DHT22;6741;48.964;9.406;2022-11-20T02:36:35;4.60;99.90
13344;DHT22;6741;48.964;9.406;2022-11-20T02:39:04;4.60;99.90
13344;DHT22;6741;48.964;9.406;2022-11-20T02:41:36;4.60;99.90
13344;DHT22;6741;48.964;9.406;2022-11-20T02:44:04;4.60;99.90
13344;DHT22;6741;48.964;9.406;2022-11-20T02:46:32;4.70;99.90
13344;DHT22;6741;48.964;9.406;2022-11-20T02:49:00;4.70;99.90
13344;DHT22;6741;48.964;9.406;2022-11-20T02:51:27;4.70;99.90
13344;DHT22;6741;48.964;9.406;2022-11-20T02:53:54;4.80;99.90
13344;DHT22;6741;48.964;9.406;2022-11-20T02:56:22;4.70;99.90
13344;DHT22;6741;48.964;9.406;2022-11-20T02:58:49;4.70;99.90
13344;DHT22;6741;48.964;9.406;2022-11-20T03:01:16;4.70;99.90
13344;DHT22;6741;48.964;9.406;2022-11-20T03:03:43;4.80;99.90
13344;DHT22;6741;48.964;9.406;2022-11-20T03:06:10;4.80;99.90
13344;DHT22;6741;48.964;9.406;2022-11-20T03:08:37;4.80;99.90
13344;DHT22;6741;48.964;9.406;2022-11-20T03:11:05;4.90;99.90
13344;DHT22;6741;48.964;9.406;2022-11-20T03:13:34;4.90;99.90
13344;DHT22;6741;48.964;9.406;2022-11-20T03:16:06;4.80;99.90
13344;DHT22;6741;48.964;9.406;2022-11-20T03:18:34;4.80;99.90
13344;DHT22;6741;48.964;9.406;2022-11-20T03:21:00;4.80;99.90
13344;DHT22;6741;48.964;9.406;2022-11-20T03:23:30;4.70;99.90
13344;DHT22;6741;48.964;9.406;2022-11-20T03:26:11;4.70;99.90
13344;DHT22;6741;48.964;9.406;2022-11-20T03:28:40;4.80;99.90
13344;DHT22;6741;48.964;9.406;2022-11-20T03:31:09;4.80;99.90
13344;DHT22;6741;48.964;9.406;2022-11-20T03:33:37;4.80;99.90
13344;DHT22;6741;48.964;9.406;2022-11-20T03:36:06;4.80;99.90
13344;DHT22;6741;48.964;9.406;2022-11-20T03:38:33;4.90;99.90
13344;DHT22;6741;48.964;9.406;2022-11-20T03:41:01;4.90;99.90
13344;DHT22;6741;48.964;9.406;2022-11-20T03:43:28;4.90;99.90
13344;DHT22;6741;48.964;9.406;2022-11-20T03:45:57;4.90;99.90
13344;DHT22;6741;48.964;9.406;2022-11-20T03:48:24;5.00;99.90
13344;DHT22;6741;48.964;9.406;2022-11-20T03:50:52;5.00;99.90
13344;DHT22;6741;48.964;9.406;2022-11-20T03:53:19;5.00;99.90
13344;DHT22;6741;48.964;9.406;2022-11-20T03:55:50;5.00;99.90
13344;DHT22;6741;48.964;9.406;2022-11-20T03:58:17;5.00;99.90
13344;DHT22;6741;48.964;9.406;2022-11-20T04:00:44;5.10;99.90
13344;DHT22;6741;48.964;9.406;2022-11-20T04:03:13;5.10;99.90
13344;DHT22;6741;48.964;9.406;2022-11-20T04:05:40;5.00;99.90
13344;DHT22;6741;48.964;9.406;2022-11-20T04:08:07;5.00;99.90
13344;DHT22;6741;48.964;9.406;2022-11-20T04:10:33;5.00;99.90
13344;DHT22;6741;48.964;9.406;2022-11-20T04:13:00;5.00;99.90
13344;DHT22;6741;48.964;9.406;2022-11-20T04:15:27;5.10;99.90
13344;DHT22;6741;48.964;9.406;2022-11-20T04:17:54;5.10;99.90
13344;DHT22;6741;48.964;9.406;2022-11-20T04:20:23;5.10;99.90
13344;DHT22;6741;48.964;9.406;2022-11-20T04:22:53;5.10;99.90
13344;DHT22;6741;48.964;9.406;2022-11-20T04:25:21;5.10;99.90
13344;DHT22;6741;48.964;9.406;2022-11-20T04:27:48;5.10;99.90
13344;DHT22;6741;48.964;9.406;2022-11-20T04:30:15;5.10;99.90
13344;DHT22;6741;48.964;9.406;2022-11-20T04:32:42;5.10;99.90
13344;DHT22;6741;48.964;9.406;2022-11-20T04:35:09;5.10;99.90
13344;DHT22;6741;48.964;9.406;2022-11-20T04:37:37;5.20;99.90
13344;DHT22;6741;48.964;9.406;2022-11-20T04:40:05;5.10;99.90
13344;DHT22;6741;48.964;9.406;2022-11-20T04:42:32;5.20;99.90
13344;DHT22;6741;48.964;9.406;2022-11-20T04:44:59;5.20;99.90
13344;DHT22;6741;48.964;9.406;2022-11-20T04:47:26;5.20;99.90
13344;DHT22;6741;48.964;9.406;2022-11-20T04:49:52;5.20;99.90
13344;DHT22;6741;48.964;9.406;2022-11-20T04:52:19;5.20;99.90
13344;DHT22;6741;48.964;9.406;2022-11-20T04:54:48;5.20;99.90
13344;DHT22;6741;48.964;9.406;2022-11-20T04:57:18;5.20;99.90
13344;DHT22;6741;48.964;9.406;2022-11-20T04:59:45;5.20;99.90
13344;DHT22;6741;48.964;9.406;2022-11-20T05:02:12;5.20;99.90
13344;DHT22;6741;48.964;9.406;2022-11-20T05:04:39;5.20;99.90
13344;DHT22;6741;48.964;9.406;2022-11-20T05:07:05;5.20;99.90
13344;DHT22;6741;48.964;9.406;2022-11-20T05:09:32;5.20;99.90
13344;DHT22;6741;48.964;9.406;2022-11-20T05:12:01;5.10;99.90
13344;DHT22;6741;48.964;9.406;2022-11-20T05:14:27;5.20;99.90
13344;DHT22;6741;48.964;9.406;2022-11-20T05:16:54;5.10;99.90
13344;DHT22;6741;48.964;9.406;2022-11-20T05:19:21;5.10;99.90
13344;DHT22;6741;48.964;9.406;2022-11-20T05:21:48;5.10;99.90
13344;DHT22;6741;48.964;9.406;2022-11-20T05:24:15;5.10;99.90
13344;DHT22;6741;48.964;9.406;2022-11-20T05:26:42;5.10;99.90
13344;DHT22;6741;48.964;9.406;2022-11-20T05:29:12;5.10;99.90
13344;DHT22;6741;48.964;9.406;2022-11-20T05:31:39;5.10;99.90
13344;DHT22;6741;48.964;9.406;2022-11-20T05:34:07;5.10;99.90
13344;DHT22;6741;48.964;9.406;2022-11-20T05:36:34;5.10;99.90
13344;DHT22;6741;48.964;9.406;2022-11-20T05:39:01;5.10;99.90
13344;DHT22;6741;48.964;9.406;2022-11-20T05:41:28;5.10;99.90
13344;DHT22;6741;48.964;9.406;2022-11-20T05:43:56;5.10;99.90
13344;DHT22;6741;48.964;9.406;2022-11-20T05:46:25;5.10;99.90
13344;DHT22;6741;48.964;9.406;2022-11-20T05:48:52;5.10;99.90
13344;DHT22;6741;48.964;9.406;2022-11-20T05:51:19;5.10;99.90
13344;DHT22;6741;48.964;9.406;2022-11-20T05:53:46;5.20;99.90
13344;DHT22;6741;48.964;9.406;2022-11-20T05:56:15;5.10;99.90
13344;DHT22;6741;48.964;9.406;2022-11-20T05:58:42;5.10;99.90
13344;DHT22;6741;48.964;9.406;2022-11-20T06:01:11;5.10;99.90
13344;DHT22;6741;48.964;9.406;2022-11-20T06:03:41;5.10;99.90
13344;DHT22;6741;48.964;9.406;2022-11-20T06:06:11;5.10;99.90
13344;DHT22;6741;48.964;9.406;2022-11-20T06:08:38;5.10;99.90
13344;DHT22;6741;48.964;9.406;2022-11-20T06:11:06;5.10;99.90
13344;DHT22;6741;48.964;9.406;2022-11-20T06:13:33;5.20;99.90
13344;DHT22;6741;48.964;9.406;2022-11-20T06:16:00;5.20;99.90
13344;DHT22;6741;48.964;9.406;2022-11-20T06:18:28;5.20;99.90
13344;DHT22;6741;48.964;9.406;2022-11-20T06:21:05;5.20;99.90
13344;DHT22;6741;48.964;9.406;2022-11-20T06:23:34;5.20;99.90
13344;DHT22;6741;48.964;9.406;2022-11-20T06:26:02;5.20;99.90
13344;DHT22;6741;48.964;9.406;2022-11-20T06:28:29;5.20;99.90
13344;DHT22;6741;48.964;9.406;2022-11-20T06:30:56;5.30;99.90
13344;DHT22;6741;48.964;9.406;2022-11-20T06:33:23;5.30;99.90
13344;DHT22;6741;48.964;9.406;2022-11-20T06:35:50;5.30;99.90
13344;DHT22;6741;48.964;9.406;2022-11-20T06:38:19;5.20;99.90
13344;DHT22;6741;48.964;9.406;2022-11-20T06:40:46;5.30;99.90
13344;DHT22;6741;48.964;9.406;2022-11-20T06:43:12;5.30;99.90
13344;DHT22;6741;48.964;9.406;2022-11-20T06:45:39;5.30;99.90
13344;DHT22;6741;48.964;9.406;2022-11-20T06:48:06;5.30;99.90
13344;DHT22;6741;48.964;9.406;2022-11-20T06:50:33;5.30;99.90
13344;DHT22;6741;48.964;9.406;2022-11-20T06:53:01;5.30;99.90
13344;DHT22;6741;48.964;9.406;2022-11-20T06:55:31;5.30;99.90
13344;DHT22;6741;48.964;9.406;2022-11-20T06:57:58;5.30;99.90
13344;DHT22;6741;48.964;9.406;2022-11-20T07:00:25;5.30;99.90
13344;DHT22;6741;48.964;9.406;2022-11-20T07:02:51;5.30;99.90
13344;DHT22;6741;48.964;9.406;2022-11-20T07:05:18;5.40;99.90
13344;DHT22;6741;48.964;9.406;2022-11-20T07:07:45;5.40;99.90
13344;DHT22;6741;48.964;9.406;2022-11-20T07:10:12;5.40;99.90
13344;DHT22;6741;48.964;9.406;2022-11-20T07:12:41;5.40;99.90
13344;DHT22;6741;48.964;9.406;2022-11-20T07:15:08;5.40;99.90
13344;DHT22;6741;48.964;9.406;2022-11-20T07:17:35;5.40;99.90
13344;DHT22;6741;48.964;9.406;2022-11-20T07:20:02;5.50;99.90
13344;DHT22;6741;48.964;9.406;2022-11-20T07:22:29;5.50;99.90
13344;DHT22;6741;48.964;9.406;2022-11-20T07:24:56;5.50;99.90
13344;DHT22;6741;48.964;9.406;2022-11-20T07:27:23;5.50;99.90
13344;DHT22;6741;48.964;9.406;2022-11-20T07:29:51;5.50;99.90
13344;DHT22;6741;48.964;9.406;2022-11-20T07:32:18;5.60;99.90
13344;DHT22;6741;48.964;9.406;2022-11-20T07:34:45;5.60;99.90
13344;DHT22;6741;48.964;9.406;2022-11-20T07:37:13;5.60;99.90
13344;DHT22;6741;48.964;9.406;2022-11-20T07:39:40;5.60;99.90
13344;DHT22;6741;48.964;9.406;2022-11-20T07:42:07;5.60;99.90
13344;DHT22;6741;48.964;9.406;2022-11-20T07:44:34;5.50;99.90
13344;DHT22;6741;48.964;9.406;2022-11-20T07:47:03;5.50;99.90
13344;DHT22;6741;48.964;9.406;2022-11-20T07:49:30;5.40;99.90
13344;DHT22;6741;48.964;9.406;2022-11-20T07:51:57;5.40;99.90
13344;DHT22;6741;48.964;9.406;2022-11-20T07:54:24;5.40;99.90
13344;DHT22;6741;48.964;9.406;2022-11-20T07:56:51;5.50;99.90
13344;DHT22;6741;48.964;9.406;2022-11-20T07:59:18;5.40;99.90
13344;DHT22;6741;48.964;9.406;2022-11-20T08:01:45;5.40;99.90
13344;DHT22;6741;48.964;9.406;2022-11-20T08:04:13;5.50;99.90
13344;DHT22;6741;48.964;9.406;2022-11-20T08:06:41;5.50;99.90
13344;DHT22;6741;48.964;9.406;2022-11-20T08:09:08;5.50;99.90
13344;DHT22;6741;48.964;9.406;2022-11-20T08:11:35;5.50;99.90
13344;DHT22;6741;48.964;9.406;2022-11-20T08:14:19;5.40;99.90
13344;DHT22;6741;48.964;9.406;2022-11-20T08:16:47;5.40;99.90
13344;DHT22;6741;48.964;9.406;2022-11-20T08:19:18;5.50;99.90
13344;DHT22;6741;48.964;9.406;2022-11-20T08:21:45;5.50;99.90
13344;DHT22;6741;48.964;9.406;2022-11-20T08:24:12;5.50;99.90
13344;DHT22;6741;48.964;9.406;2022-11-20T08:26:39;5.50;99.90
13344;DHT22;6741;48.964;9.406;2022-11-20T08:29:06;5.60;99.90
13344;DHT22;6741;48.964;9.406;2022-11-20T08:31:34;5.60;99.90
13344;DHT22;6741;48.964;9.406;2022-11-20T08:34:01;5.70;99.90
13344;DHT22;6741;48.964;9.406;2022-11-20T08:36:33;5.80;99.90
13344;DHT22;6741;48.964;9.406;2022-11-20T08:39:00;5.80;99.90
13344;DHT22;6741;48.964;9.406;2022-11-20T08:41:29;5.80;99.90
13344;DHT22;6741;48.964;9.406;2022-11-20T08:44:00;5.80;99.90
13344;DHT22;6741;48.964;9.406;2022-11-20T08:46:31;5.80;99.90
13344;DHT22;6741;48.964;9.406;2022-11-20T08:48:59;5.70;99.90
13344;DHT22;6741;48.964;9.406;2022-11-20T08:51:26;5.70;99.90
13344;DHT22;6741;48.964;9.406;2022-11-20T08:53:54;5.70;99.90
13344;DHT22;6741;48.964;9.406;2022-11-20T08:56:21;5.70;99.90
13344;DHT22;6741;48.964;9.406;2022-11-20T08:58:50;5.60;99.90
13344;DHT22;6741;48.964;9.406;2022-11-20T09:01:17;5.60;99.90
13344;DHT22;6741;48.964;9.406;2022-11-20T09:03:44;5.70;99.90
13344;DHT22;6741;48.964;9.406;2022-11-20T09:06:11;5.60;99.90
13344;DHT22;6741;48.964;9.406;2022-11-20T09:08:38;5.70;99.90
13344;DHT22;6741;48.964;9.406;2022-11-20T09:11:07;5.70;99.90
13344;DHT22;6741;48.964;9.406;2022-11-20T09:13:35;5.70;99.90
13344;DHT22;6741;48.964;9.406;2022-11-20T09:16:04;5.70;99.90
13344;DHT22;6741;48.964;9.406;2022-11-20T09:18:32;5.70;99.90
13344;DHT22;6741;48.964;9.406;2022-11-20T09:21:00;5.80;99.90
13344;DHT22;6741;48.964;9.406;2022-11-20T09:23:31;5.80;99.90
13344;DHT22;6741;48.964;9.406;2022-11-20T09:26:02;5.80;99.90
13344;DHT22;6741;48.964;9.406;2022-11-20T09:28:31;5.80;99.90
13344;DHT22;6741;48.964;9.406;2022-11-20T09:30:59;5.80;99.90
13344;DHT22;6741;48.964;9.406;2022-11-20T09:33:26;5.80;99.90
13344;DHT22;6741;48.964;9.406;2022-11-20T09:35:53;5.80;99.90
13344;DHT22;6741;48.964;9.406;2022-11-20T09:38:20;5.80;99.90
13344;DHT22;6741;48.964;9.406;2022-11-20T09:40:54;5.90;99.90
13344;DHT22;6741;48.964;9.406;2022-11-20T09:43:30;5.90;99.90
13344;DHT22;6741;48.964;9.406;2022-11-20T09:46:08;6.00;99.90
13344;DHT22;6741;48.964;9.406;2022-11-20T09:48:49;5.90;99.90
13344;DHT22;6741;48.964;9.406;2022-11-20T09:51:26;5.80;99.90
13344;DHT22;6741;48.964;9.406;2022-11-20T09:54:05;5.80;99.90
13344;DHT22;6741;48.964;9.406;2022-11-20T09:56:34;5.80;99.90
13344;DHT22;6741;48.964;9.406;2022-11-20T09:59:07;5.90;99.90
13344;DHT22;6741;48.964;9.406;2022-11-20T10:01:38;5.90;99.90
13344;DHT22;6741;48.964;9.406;2022-11-20T10:04:13;6.00;99.90
13344;DHT22;6741;48.964;9.406;2022-11-20T10:06:49;6.00;99.90
13344;DHT22;6741;48.964;9.406;2022-11-20T10:09:23;6.10;99.90
13344;DHT22;6741;48.964;9.406;2022-11-20T10:12:01;6.10;99.90
13344;DHT22;6741;48.964;9.406;2022-11-20T10:14:41;6.30;99.90
13344;DHT22;6741;48.964;9.406;2022-11-20T10:17:19;6.20;99.90
13344;DHT22;6741;48.964;9.406;2022-11-20T10:20:02;6.30;99.90
13344;DHT22;6741;48.964;9.406;2022-11-20T10:23:01;6.40;99.90
13344;DHT22;6741;48.964;9.406;2022-11-20T10:25:37;6.40;99.90
13344;DHT22;6741;48.964;9.406;2022-11-20T10:28:24;6.40;99.90
13344;DHT22;6741;48.964;9.406;2022-11-20T10:31:00;6.40;99.90
13344;DHT22;6741;48.964;9.406;2022-11-20T10:33:32;6.50;99.90
13344;DHT22;6741;48.964;9.406;2022-11-20T10:36:08;6.60;99.90
13344;DHT22;6741;48.964;9.406;2022-11-20T10:38:42;6.60;99.90
13344;DHT22;6741;48.964;9.406;2022-11-20T10:41:16;6.60;99.90
13344;DHT22;6741;48.964;9.406;2022-11-20T10:43:58;6.60;99.90
13344;DHT22;6741;48.964;9.406;2022-11-20T10:46:35;6.50;99.90
13344;DHT22;6741;48.964;9.406;2022-11-20T10:49:09;6.50;99.90
13344;DHT22;6741;48.964;9.406;2022-11-20T10:51:42;6.60;99.90
13344;DHT22;6741;48.964;9.406;2022-11-20T10:54:18;6.60;99.90
13344;DHT22;6741;48.964;9.406;2022-11-20T10:56:50;6.60;99.90
13344;DHT22;6741;48.964;9.406;2022-11-20T10:59:50;6.60;99.90
13344;DHT22;6741;48.964;9.406;2022-11-20T11:02:23;6.70;99.90
13344;DHT22;6741;48.964;9.406;2022-11-20T11:04:51;6.70;99.90
13344;DHT22;6741;48.964;9.406;2022-11-20T11:07:21;6.70;99.90
13344;DHT22;6741;48.964;9.406;2022-11-20T11:09:50;6.70;99.90
13344;DHT22;6741;48.964;9.406;2022-11-20T11:12:19;6.70;99.90
13344;DHT22;6741;48.964;9.406;2022-11-20T11:14:48;6.70;99.90
13344;DHT22;6741;48.964;9.406;2022-11-20T11:17:23;6.70;99.90
13344;DHT22;6741;48.964;9.406;2022-11-20T11:20:04;6.80;99.90
13344;DHT22;6741;48.964;9.406;2022-11-20T11:22:33;6.80;99.90
13344;DHT22;6741;48.964;9.406;2022-11-20T11:25:01;6.80;99.90
13344;DHT22;6741;48.964;9.406;2022-11-20T11:27:28;6.70;99.90
13344;DHT22;6741;48.964;9.406;2022-11-20T11:30:12;6.70;99.90
13344;DHT22;6741;48.964;9.406;2022-11-20T11:32:41;6.60;99.90
13344;DHT22;6741;48.964;9.406;2022-11-20T11:35:20;6.70;99.90
13344;DHT22;6741;48.964;9.406;2022-11-20T11:37:48;6.60;99.90
13344;DHT22;6741;48.964;9.406;2022-11-20T11:40:17;6.60;99.90
13344;DHT22;6741;48.964;9.406;2022-11-20T11:42:49;6.60;99.90
13344;DHT22;6741;48.964;9.406;2022-11-20T11:45:17;6.50;99.90
13344;DHT22;6741;48.964;9.406;2022-11-20T11:47:46;6.60;99.90
13344;DHT22;6741;48.964;9.406;2022-11-20T11:50:20;6.70;99.90
13344;DHT22;6741;48.964;9.406;2022-11-20T11:52:56;6.70;99.90
13344;DHT22;6741;48.964;9.406;2022-11-20T11:55:31;6.80;99.90
13344;DHT22;6741;48.964;9.406;2022-11-20T11:58:08;7.00;99.90
13344;DHT22;6741;48.964;9.406;2022-11-20T12:00:39;7.20;99.90
13344;DHT22;6741;48.964;9.406;2022-11-20T12:03:12;7.30;99.90
13344;DHT22;6741;48.964;9.406;2022-11-20T12:05:43;7.30;99.90
13344;DHT22;6741;48.964;9.406;2022-11-20T12:08:16;7.30;99.90
13344;DHT22;6741;48.964;9.406;2022-11-20T12:10:48;7.20;99.90
13344;DHT22;6741;48.964;9.406;2022-11-20T12:13:40;7.30;99.90
13344;DHT22;6741;48.964;9.406;2022-11-20T12:16:12;7.30;99.90
13344;DHT22;6741;48.964;9.406;2022-11-20T12:18:42;7.30;99.90
13344;DHT22;6741;48.964;9.406;2022-11-20T12:21:18;7.60;99.90
13344;DHT22;6741;48.964;9.406;2022-11-20T12:24:06;8.60;99.90
13344;DHT22;6741;48.964;9.406;2022-11-20T12:26:48;8.90;99.90
13344;DHT22;6741;48.964;9.406;2022-11-20T12:29:28;8.70;99.90
13344;DHT22;6741;48.964;9.406;2022-11-20T12:32:11;8.70;99.90
13344;DHT22;6741;48.964;9.406;2022-11-20T12:34:54;8.30;99.90
13344;DHT22;6741;48.964;9.406;2022-11-20T12:37:34;7.90;99.90
13344;DHT22;6741;48.964;9.406;2022-11-20T12:40:17;7.70;99.90
13344;DHT22;6741;48.964;9.406;2022-11-20T12:42:58;7.60;99.90
13344;DHT22;6741;48.964;9.406;2022-11-20T12:46:02;7.60;99.90
13344;DHT22;6741;48.964;9.406;2022-11-20T12:48:42;7.50;99.90
13344;DHT22;6741;48.964;9.406;2022-11-20T12:51:27;7.40;99.90
13344;DHT22;6741;48.964;9.406;2022-11-20T12:54:08;7.40;99.90
13344;DHT22;6741;48.964;9.406;2022-11-20T12:56:44;7.40;99.90
13344;DHT22;6741;48.964;9.406;2022-11-20T12:59:28;7.90;99.90
13344;DHT22;6741;48.964;9.406;2022-11-20T13:02:03;9.50;49.50
13344;DHT22;6741;48.964;9.406;2022-11-20T13:05:01;9.40;59.20
13344;DHT22;6741;48.964;9.406;2022-11-20T13:07:35;10.10;21.30
13344;DHT22;6741;48.964;9.406;2022-11-20T13:10:03;9.60;79.40
13344;DHT22;6741;48.964;9.406;2022-11-20T13:12:35;9.40;85.20
13344;DHT22;6741;48.964;9.406;2022-11-20T13:15:13;8.60;99.90
13344;DHT22;6741;48.964;9.406;2022-11-20T13:17:47;8.20;99.90
13344;DHT22;6741;48.964;9.406;2022-11-20T13:20:19;8.10;99.90
13344;DHT22;6741;48.964;9.406;2022-11-20T13:22:49;8.10;99.90
13344;DHT22;6741;48.964;9.406;2022-11-20T13:25:23;8.00;99.90
13344;DHT22;6741;48.964;9.406;2022-11-20T13:27:51;8.00;99.90
13344;DHT22;6741;48.964;9.406;2022-11-20T13:30:19;8.00;99.90
13344;DHT22;6741;48.964;9.406;2022-11-20T13:32:54;7.90;92.30
13344;DHT22;6741;48.964;9.406;2022-11-20T13:35:33;7.90;88.10
13344;DHT22;6741;48.964;9.406;2022-11-20T13:38:05;8.10;73.20
13344;DHT22;6741;48.964;9.406;2022-11-20T13:40:33;8.00;82.90
13344;DHT22;6741;48.964;9.406;2022-11-20T13:43:10;8.10;89.00
13344;DHT22;6741;48.964;9.406;2022-11-20T13:45:41;8.30;82.60
13344;DHT22;6741;48.964;9.406;2022-11-20T13:48:19;8.20;83.60
13344;DHT22;6741;48.964;9.406;2022-11-20T13:50:55;8.00;94.10
13344;DHT22;6741;48.964;9.406;2022-11-20T13:53:37;7.90;97.10
13344;DHT22;6741;48.964;9.406;2022-11-20T13:56:10;8.50;76.70
13344;DHT22;6741;48.964;9.406;2022-11-20T13:58:52;8.80;61.50
13344;DHT22;6741;48.964;9.406;2022-11-20T14:01:26;9.00;60.10
13344;DHT22;6741;48.964;9.406;2022-11-20T14:03:53;10.00;1.00
13344;DHT22;6741;48.964;9.406;2022-11-20T14:06:26;9.80;1.00
13344;DHT22;6741;48.964;9.406;2022-11-20T14:08:55;9.80;1.00
13344;DHT22;6741;48.964;9.406;2022-11-20T14:11:24;9.50;1.00
13344;DHT22;6741;48.964;9.406;2022-11-20T14:13:59;8.60;22.80
13344;DHT22;6741;48.964;9.406;2022-11-20T14:16:30;8.10;63.60
13344;DHT22;6741;48.964;9.406;2022-11-20T14:18:58;8.00;92.40
13344;DHT22;6741;48.964;9.406;2022-11-20T14:21:43;7.90;90.70
13344;DHT22;6741;48.964;9.406;2022-11-20T14:24:13;7.80;72.20
13344;DHT22;6741;48.964;9.406;2022-11-20T14:26:42;7.70;94.60
13344;DHT22;6741;48.964;9.406;2022-11-20T14:29:12;7.70;94.60
13344;DHT22;6741;48.964;9.406;2022-11-20T14:31:40;7.60;91.00
13344;DHT22;6741;48.964;9.406;2022-11-20T14:34:13;7.50;99.90
13344;DHT22;6741;48.964;9.406;2022-11-20T14:36:43;7.50;99.90
13344;DHT22;6741;48.964;9.406;2022-11-20T14:39:19;7.50;99.90
13344;DHT22;6741;48.964;9.406;2022-11-20T14:41:50;7.40;99.90
13344;DHT22;6741;48.964;9.406;2022-11-20T14:44:17;7.50;80.70
13344;DHT22;6741;48.964;9.406;2022-11-20T14:46:46;7.50;74.60
13344;DHT22;6741;48.964;9.406;2022-11-20T14:49:13;7.60;29.90
13344;DHT22;6741;48.964;9.406;2022-11-20T14:51:40;7.50;42.70
13344;DHT22;6741;48.964;9.406;2022-11-20T14:54:09;7.50;37.00
13344;DHT22;6741;48.964;9.406;2022-11-20T14:56:38;7.40;53.90
13344;DHT22;6741;48.964;9.406;2022-11-20T14:59:05;7.30;53.70
13344;DHT22;6741;48.964;9.406;2022-11-20T15:01:33;7.20;62.70
13344;DHT22;6741;48.964;9.406;2022-11-20T15:04:01;7.20;77.50
13344;DHT22;6741;48.964;9.406;2022-11-20T15:06:31;7.20;81.60
13344;DHT22;6741;48.964;9.406;2022-11-20T15:08:58;7.10;94.50
13344;DHT22;6741;48.964;9.406;2022-11-20T15:11:29;7.00;99.90
13344;DHT22;6741;48.964;9.406;2022-11-20T15:14:02;6.90;99.90
13344;DHT22;6741;48.964;9.406;2022-11-20T15:16:30;6.90;99.90
13344;DHT22;6741;48.964;9.406;2022-11-20T15:18:57;6.80;99.90
13344;DHT22;6741;48.964;9.406;2022-11-20T15:21:24;6.70;99.90
13344;DHT22;6741;48.964;9.406;2022-11-20T15:23:51;6.70;99.90
13344;DHT22;6741;48.964;9.406;2022-11-20T15:26:23;6.60;99.90
13344;DHT22;6741;48.964;9.406;2022-11-20T15:28:51;6.50;99.90
13344;DHT22;6741;48.964;9.406;2022-11-20T15:31:22;6.40;99.90
13344;DHT22;6741;48.964;9.406;2022-11-20T15:33:49;6.40;99.90
13344;DHT22;6741;48.964;9.406;2022-11-20T15:36:17;6.40;99.90
13344;DHT22;6741;48.964;9.406;2022-11-20T15:38:44;6.40;99.90
13344;DHT22;6741;48.964;9.406;2022-11-20T15:41:11;6.40;99.90
13344;DHT22;6741;48.964;9.406;2022-11-20T15:43:38;6.30;99.90
13344;DHT22;6741;48.964;9.406;2022-11-20T15:46:08;6.20;99.90
13344;DHT22;6741;48.964;9.406;2022-11-20T15:48:39;6.20;99.90
13344;DHT22;6741;48.964;9.406;2022-11-20T15:51:15;6.10;99.90
13344;DHT22;6741;48.964;9.406;2022-11-20T15:53:47;6.00;99.90
13344;DHT22;6741;48.964;9.406;2022-11-20T15:56:15;6.00;99.90
13344;DHT22;6741;48.964;9.406;2022-11-20T15:58:42;5.90;99.90
13344;DHT22;6741;48.964;9.406;2022-11-20T16:01:10;6.00;99.90
13344;DHT22;6741;48.964;9.406;2022-11-20T16:03:39;5.90;99.90
13344;DHT22;6741;48.964;9.406;2022-11-20T16:06:06;5.90;99.90
13344;DHT22;6741;48.964;9.406;2022-11-20T16:08:33;5.90;99.90
13344;DHT22;6741;48.964;9.406;2022-11-20T16:11:00;5.80;99.90
13344;DHT22;6741;48.964;9.406;2022-11-20T16:13:28;5.80;99.90
13344;DHT22;6741;48.964;9.406;2022-11-20T16:16:21;5.80;99.90
13344;DHT22;6741;48.964;9.406;2022-11-20T16:18:50;5.80;99.90
13344;DHT22;6741;48.964;9.406;2022-11-20T16:21:17;5.80;99.90
13344;DHT22;6741;48.964;9.406;2022-11-20T16:23:44;5.80;99.90